This is the latest recevied weather packets stored in our database for station/object N8ESC. If no packets are shown the sender has not sent any weather packets the latest 1 day(s).
| Time | Temp. | Humidity | Pressure | Rain* | Wind** | Luminosity | Snow |
|---|---|---|---|---|---|---|---|
| 1778001316 | 9.44° C | 39% | 1003.6 hPa | 0 mm | 1.79 m/s, 230° | 363 W/m² | - |
| 1778001014 | 10° C | 37% | 1003.4 hPa | 0 mm | 4.02 m/s, 257° | 273 W/m² | - |
| 1778000710 | 10° C | 38% | 1003.5 hPa | 0 mm | 2.68 m/s, 257° | 384 W/m² | - |
| 1778000406 | 10° C | 40% | 1003.5 hPa | 0 mm | 2.68 m/s, 210° | 303 W/m² | - |
| 1778000102 | 10° C | 38% | 1003.7 hPa | 0 mm | 2.68 m/s, 233° | 297 W/m² | - |
| 1777999797 | 9.44° C | 41% | 1003.5 hPa | 0 mm | 3.13 m/s, 272° | 362 W/m² | - |
| 1777999494 | 9.44° C | 42% | 1003.5 hPa | 0 mm | 1.79 m/s, 246° | 218 W/m² | - |
| 1777999192 | 9.44° C | 40% | 1003.5 hPa | 0 mm | 4.92 m/s, 262° | 177 W/m² | - |
| 1777998890 | 10° C | 40% | 1003.4 hPa | 0 mm | 4.47 m/s, 209° | 206 W/m² | - |
| 1777998590 | 10.56° C | 39% | 1003.4 hPa | 0 mm | 2.24 m/s, 223° | 447 W/m² | - |
| 1777998285 | 9.44° C | 41% | 1003.4 hPa | 0 mm | 2.24 m/s, 289° | 758 W/m² | - |
| 1777997982 | 10° C | 43% | 1003.7 hPa | 0 mm | 1.79 m/s, 245° | 214 W/m² | - |
| 1777997678 | 9.44° C | 42% | 1003.7 hPa | 0 mm | 4.92 m/s, 308° | 298 W/m² | - |
| 1777997376 | 9.44° C | 41% | 1003.8 hPa | 0 mm | 5.36 m/s, 267° | 362 W/m² | - |
| 1777997074 | 9.44° C | 43% | 1003.7 hPa | 0 mm | 4.47 m/s, 215° | 530 W/m² | - |
| 1777996770 | 9.44° C | 41% | 1003.8 hPa | 0 mm | 4.92 m/s, 250° | 361 W/m² | - |
| 1777996467 | 8.89° C | 44% | 1003.7 hPa | 0 mm | 2.68 m/s, 214° | 655 W/m² | - |
| 1777996164 | 10° C | 43% | 1003.5 hPa | 0 mm | 4.02 m/s, 256° | 324 W/m² | - |
| 1777995860 | 9.44° C | 43% | 1003.6 hPa | 0 mm | 1.79 m/s, 232° | 274 W/m² | - |
| 1777995556 | 10° C | 42% | 1003.5 hPa | 0 mm | 1.79 m/s, 238° | 824 W/m² | - |
| 1777995254 | 8.89° C | 42% | 1003.6 hPa | 0 mm | 1.79 m/s, 190° | 543 W/m² | - |
| 1777994950 | 10° C | 40% | 1003.6 hPa | 0 mm | 3.13 m/s, 275° | 634 W/m² | - |
| 1777994648 | 9.44° C | 44% | 1003.5 hPa | 0 mm | 1.79 m/s, 249° | 723 W/m² | - |
| 1777994347 | 8.89° C | 44% | 1003.5 hPa | 0 mm | 3.13 m/s, 317° | 172 W/m² | - |
| 1777994044 | 9.44° C | 42% | 1003.7 hPa | 0 mm | 3.13 m/s, 309° | 361 W/m² | - |
* Rain latest hour (hover to see other rain measurements)
** Current wind speed in m/s (hover to see current wind gust speed)